Time;durP1;ratioP1;P1;durP2;ratioP2;P2;SDS_P1;SDS_P2;PMS_P1;PMS_P2;Temp;Humidity;BMP_temperature;BMP_pressure;BME280_temperature;BME280_humidity;BME280_pressure;Samples;Min_cycle;Max_cycle;Signal;HPM_P1;HPM_P2
2022/08/25 00:01:32;;;;;;;2.20;2.00;;;;;;;20.81;57.11;98644.34;4092565;28;20322;-51
2022/08/25 00:03:34;;;;;;;3.22;2.17;;;;;;;20.78;57.10;98644.13;4090848;28;20208;-54
2022/08/25 00:05:40;;;;;;;2.40;2.17;;;;;;;20.74;57.43;98643.09;4092572;28;20210;-51
2022/08/25 00:07:42;;;;;;;2.55;2.10;;;;;;;20.67;57.62;98648.28;4092925;28;20227;-51
2022/08/25 00:09:44;;;;;;;2.17;1.98;;;;;;;20.62;57.48;98645.59;4094414;28;20204;-52
2022/08/25 00:11:48;;;;;;;2.35;2.15;;;;;;;20.59;57.78;98643.44;4108333;28;20203;-54
2022/08/25 00:13:56;;;;;;;7.55;2.33;;;;;;;20.60;57.93;98631.19;4090145;28;20673;-54
2022/08/25 00:15:58;;;;;;;3.38;1.50;;;;;;;20.58;58.05;98639.03;4092246;28;20860;-54
2022/08/25 00:18:00;;;;;;;2.95;2.00;;;;;;;20.55;57.91;98636.84;4094456;28;20725;-53
2022/08/25 00:20:03;;;;;;;2.65;1.88;;;;;;;20.50;57.95;98640.56;4106683;28;20210;-53
2022/08/25 00:22:06;;;;;;;2.17;1.95;;;;;;;20.48;57.66;98639.22;4107770;28;20218;-52
2022/08/25 00:24:09;;;;;;;2.20;2.10;;;;;;;20.46;57.52;98636.78;4106101;28;20211;-52
2022/08/25 00:26:12;;;;;;;5.70;2.13;;;;;;;20.47;57.44;98643.16;4091387;28;20234;-51
2022/08/25 00:28:15;;;;;;;3.88;2.30;;;;;;;20.46;57.86;98641.50;4093081;28;20218;-51
2022/08/25 00:30:17;;;;;;;2.30;2.10;;;;;;;20.37;57.99;98643.38;4096229;28;20344;-51
2022/08/25 00:32:19;;;;;;;2.38;1.90;;;;;;;20.36;58.25;98633.38;4090570;28;20215;-51
2022/08/25 00:34:24;;;;;;;2.13;2.00;;;;;;;20.32;58.23;98635.16;4109067;28;20758;-52
2022/08/25 00:36:27;;;;;;;2.50;1.95;;;;;;;20.23;58.44;98636.97;4094273;28;20223;-52
2022/08/25 00:38:30;;;;;;;2.13;1.92;;;;;;;20.16;58.65;98633.78;4108723;28;20203;-53
2022/08/25 00:40:33;;;;;;;4.88;2.40;;;;;;;20.17;58.70;98635.47;4104327;28;20219;-52
2022/08/25 00:42:35;;;;;;;7.00;2.80;;;;;;;20.16;58.84;98642.13;4089042;28;20234;-53
2022/08/25 00:44:38;;;;;;;3.13;2.40;;;;;;;20.14;58.72;98644.41;4091573;28;20807;-53
2022/08/25 00:46:44;;;;;;;2.53;2.33;;;;;;;20.15;58.68;98649.66;4091042;28;20234;-52
2022/08/25 00:48:50;;;;;;;8.05;1.70;;;;;;;20.14;58.53;98639.69;4103662;28;20211;-53
2022/08/25 00:50:51;;;;;;;2.35;1.75;;;;;;;20.14;58.60;98638.84;4072780;29;20200;-53
2022/08/25 00:52:55;;;;;;;7.80;2.00;;;;;;;20.14;58.46;98636.91;4103687;28;20210;-52
2022/08/25 00:55:08;;;;;;;2.30;1.98;;;;;;;20.14;58.39;98641.63;4071188;29;20345;-55
2022/08/25 00:57:12;;;;;;;2.55;2.22;;;;;;;20.12;58.51;98641.13;4100902;28;20222;-55
2022/08/25 00:59:15;;;;;;;2.58;1.92;;;;;;;20.04;58.49;98644.59;4085294;28;20246;-52
2022/08/25 01:01:17;;;;;;;2.38;2.17;;;;;;;20.03;58.57;98648.47;4082960;28;20238;-52
2022/08/25 01:03:19;;;;;;;2.45;1.90;;;;;;;20.00;58.35;98652.72;4086415;28;20222;-59
2022/08/25 01:05:25;;;;;;;1.90;1.80;;;;;;;19.97;58.34;98636.66;4089853;28;20247;-53
2022/08/25 01:07:27;;;;;;;2.63;2.42;;;;;;;19.97;58.44;98650.53;4090088;28;20253;-52
2022/08/25 01:09:31;;;;;;;2.45;2.25;;;;;;;19.97;58.60;98650.53;4087387;28;20698;-52
2022/08/25 01:11:33;;;;;;;2.50;2.30;;;;;;;19.92;58.82;98652.59;4102991;28;20218;-52
2022/08/25 01:13:41;;;;;;;3.15;2.10;;;;;;;19.80;58.94;98649.50;4091412;28;20709;-51
2022/08/25 01:15:44;;;;;;;2.30;2.03;;;;;;;19.79;58.96;98653.41;4105950;28;20211;-52
2022/08/25 01:17:53;;;;;;;3.45;2.00;;;;;;;19.82;58.99;98652.78;4090318;28;20713;-51
2022/08/25 01:19:54;;;;;;;2.22;2.03;;;;;;;19.81;59.02;98659.47;4093166;28;20221;-53
2022/08/25 01:21:56;;;;;;;2.17;1.80;;;;;;;19.82;59.19;98658.34;4090513;28;20745;-52
2022/08/25 01:23:59;;;;;;;2.22;1.90;;;;;;;19.79;59.42;98664.50;4091839;28;20696;-53
2022/08/25 01:26:03;;;;;;;3.67;1.55;;;;;;;19.71;59.38;98654.13;4105970;28;20215;-52
2022/08/25 01:28:05;;;;;;;4.47;1.77;;;;;;;19.67;59.58;98665.00;4091641;28;20342;-51
2022/08/25 01:30:07;;;;;;;2.42;2.20;;;;;;;19.64;59.74;98650.91;4106472;28;20740;-54
2022/08/25 01:32:12;;;;;;;2.80;1.73;;;;;;;19.61;59.94;98662.63;4089757;28;20732;-51
2022/08/25 01:34:15;;;;;;;2.08;1.98;;;;;;;19.61;59.72;98657.91;4106374;28;20219;-52
2022/08/25 01:36:18;;;;;;;2.72;1.83;;;;;;;19.59;59.74;98657.34;4108259;28;20215;-53
2022/08/25 01:38:20;;;;;;;2.75;2.08;;;;;;;19.61;59.78;98669.00;4092052;28;20207;-52
2022/08/25 01:40:23;;;;;;;2.42;2.00;;;;;;;19.57;59.91;98661.59;4074814;29;20315;-51
2022/08/25 01:43:03;;;;;;;1.92;1.83;;;;;;;19.53;59.96;98671.63;4088615;28;20215;-53
2022/08/25 01:45:05;;;;;;;2.97;1.83;;;;;;;19.47;60.10;98656.19;4091016;28;20699;-53
2022/08/25 01:47:07;;;;;;;2.03;1.92;;;;;;;19.46;59.96;98660.09;4086019;28;20223;-53
2022/08/25 01:49:09;;;;;;;3.35;2.17;;;;;;;19.47;60.11;98664.53;4090990;28;20251;-51
2022/08/25 01:51:13;;;;;;;2.28;2.00;;;;;;;19.44;60.02;98656.81;4092147;28;20203;-52
2022/08/25 01:53:22;;;;;;;3.30;2.08;;;;;;;19.46;60.15;98665.66;4091211;28;20645;-52
2022/08/25 01:55:25;;;;;;;2.25;2.00;;;;;;;19.45;60.32;98659.28;4104150;28;20685;-51
2022/08/25 01:57:29;;;;;;;3.15;1.63;;;;;;;19.41;60.39;98662.97;4104697;28;20223;-52
2022/08/25 01:59:30;;;;;;;2.42;2.08;;;;;;;19.35;60.55;98664.16;4105446;28;20245;-51
2022/08/25 02:01:33;;;;;;;3.17;2.03;;;;;;;19.32;60.51;98665.59;4088703;28;20628;-52
2022/08/25 02:03:39;;;;;;;7.82;2.00;;;;;;;19.31;60.65;98668.69;4090149;28;21054;-51
2022/08/25 02:05:43;;;;;;;2.42;2.17;;;;;;;19.30;60.59;98664.25;4089692;28;20242;-51
2022/08/25 02:07:48;;;;;;;2.85;2.10;;;;;;;19.25;60.88;98673.47;4090527;28;20620;-51
2022/08/25 02:09:50;;;;;;;4.97;2.90;;;;;;;19.20;60.82;98665.28;4074098;29;20208;-52
2022/08/25 02:11:52;;;;;;;3.08;2.80;;;;;;;19.18;60.98;98663.88;4087683;28;22356;-51
2022/08/25 02:13:53;;;;;;;2.00;1.90;;;;;;;19.13;61.04;98661.19;4105721;28;20207;-53
2022/08/25 02:15:57;;;;;;;2.33;2.20;;;;;;;19.10;61.13;98661.75;4089332;28;20207;-52
2022/08/25 02:17:59;;;;;;;2.25;2.05;;;;;;;19.09;61.10;98660.13;4104375;28;20230;-51
2022/08/25 02:20:04;;;;;;;2.55;2.28;;;;;;;19.07;61.07;98662.38;4072527;29;20208;-51
2022/08/25 02:22:05;;;;;;;2.67;2.47;;;;;;;19.04;60.92;98646.34;4103169;28;20313;-53
2022/08/25 02:24:08;;;;;;;3.25;2.03;;;;;;;19.03;60.93;98651.06;4107028;28;20676;-52
2022/08/25 02:26:09;;;;;;;2.20;2.10;;;;;;;19.01;61.02;98652.50;4102504;28;20210;-51
2022/08/25 02:28:12;;;;;;;2.35;2.25;;;;;;;18.99;61.24;98649.19;4105333;28;20207;-51
2022/08/25 02:30:14;;;;;;;2.55;2.35;;;;;;;18.96;61.48;98645.06;4088930;28;20211;-51
2022/08/25 02:32:16;;;;;;;2.65;2.05;;;;;;;18.97;61.53;98645.91;4104332;28;20293;-52
2022/08/25 02:34:18;;;;;;;2.97;2.78;;;;;;;18.99;61.41;98643.66;4107854;28;20207;-53
2022/08/25 02:36:20;;;;;;;3.67;2.35;;;;;;;18.97;61.16;98651.47;4104486;28;20669;-52
2022/08/25 02:38:22;;;;;;;5.97;2.28;;;;;;;18.95;61.54;98648.97;4090435;28;20199;-51
2022/08/25 02:40:24;;;;;;;2.75;1.98;;;;;;;18.91;61.59;98647.91;4074757;29;20275;-55
2022/08/25 02:42:26;;;;;;;2.20;2.10;;;;;;;18.91;61.70;98644.34;4109049;28;20775;-53
2022/08/25 02:44:28;;;;;;;2.50;2.30;;;;;;;18.78;62.11;98643.13;4109317;28;20267;-53
2022/08/25 02:46:29;;;;;;;3.60;2.60;;;;;;;18.77;62.12;98637.91;4094520;29;20219;-52
2022/08/25 02:48:31;;;;;;;2.92;2.10;;;;;;;18.73;62.27;98640.41;4094120;28;20259;-52
2022/08/25 02:50:33;;;;;;;3.20;2.75;;;;;;;18.75;62.23;98637.34;4092890;28;20577;-52
2022/08/25 02:52:35;;;;;;;2.78;2.28;;;;;;;18.77;62.18;98640.66;4108835;28;20597;-54
2022/08/25 02:54:37;;;;;;;4.95;3.08;;;;;;;18.76;62.10;98644.53;4095439;28;20211;-53
2022/08/25 02:56:40;;;;;;;2.97;2.60;;;;;;;18.75;62.25;98640.13;4109267;28;20258;-53
2022/08/25 02:58:42;;;;;;;2.00;1.70;;;;;;;18.68;62.60;98636.91;4091619;28;20211;-52
2022/08/25 03:00:44;;;;;;;3.60;2.33;;;;;;;18.68;62.47;98646.06;4090214;28;20219;-53
2022/08/25 03:02:46;;;;;;;2.90;2.38;;;;;;;18.66;62.59;98642.72;4109523;28;21479;-51
2022/08/25 03:04:49;;;;;;;3.25;2.63;;;;;;;18.66;62.32;98644.69;4077779;29;20208;-52
2022/08/25 03:06:51;;;;;;;2.78;2.58;;;;;;;18.65;62.24;98640.28;4108838;28;20525;-51
2022/08/25 03:08:53;;;;;;;3.30;2.05;;;;;;;18.67;62.37;98646.34;4088978;28;20211;-53
2022/08/25 03:10:55;;;;;;;5.35;2.83;;;;;;;18.67;62.40;98644.41;4107893;28;20257;-52
2022/08/25 03:12:56;;;;;;;2.90;2.60;;;;;;;18.66;62.36;98645.50;4093330;29;20262;-51
2022/08/25 03:14:58;;;;;;;3.50;2.78;;;;;;;18.64;62.50;98649.72;4093080;28;20290;-52
2022/08/25 03:17:01;;;;;;;4.30;2.85;;;;;;;18.59;62.48;98649.78;4108686;28;20238;-52
2022/08/25 03:19:10;;;;;;;3.58;3.25;;;;;;;18.56;62.65;98650.38;4106206;28;20256;-55
2022/08/25 03:21:12;;;;;;;2.95;2.65;;;;;;;18.53;62.81;98646.25;4088032;28;20224;-51
2022/08/25 03:23:16;;;;;;;2.35;2.15;;;;;;;18.49;62.84;98642.44;4093765;28;21281;-51
2022/08/25 03:27:38;;;;;;;3.10;2.45;;;;;;;18.38;63.07;98627.06;4092761;29;20654;-52
2022/08/25 03:29:41;;;;;;;3.78;2.80;;;;;;;18.35;63.25;98627.66;4109015;28;20671;-52
2022/08/25 03:31:44;;;;;;;2.97;2.30;;;;;;;18.31;63.59;98614.72;4107980;28;20199;-53
2022/08/25 03:33:45;;;;;;;2.85;2.65;;;;;;;18.31;63.58;98612.75;4109388;28;20703;-51
2022/08/25 03:35:47;;;;;;;2.55;2.35;;;;;;;18.27;63.78;98619.16;4095103;28;20304;-55
2022/08/25 03:37:50;;;;;;;3.05;2.72;;;;;;;18.28;63.66;98615.25;4095733;28;20274;-52
2022/08/25 03:39:51;;;;;;;2.38;2.25;;;;;;;18.28;63.58;98623.56;4093290;28;20207;-52
2022/08/25 03:41:53;;;;;;;4.07;2.53;;;;;;;18.25;63.75;98626.94;4090607;28;20775;-51
2022/08/25 03:43:56;;;;;;;2.63;2.42;;;;;;;18.27;63.71;98625.53;4093581;28;20772;-51
2022/08/25 03:45:57;;;;;;;3.10;2.58;;;;;;;18.22;64.03;98627.53;4104706;28;20549;-53
2022/08/25 03:47:59;;;;;;;3.45;2.65;;;;;;;18.20;64.12;98629.78;4089533;28;20362;-51
2022/08/25 03:50:01;;;;;;;3.83;3.47;;;;;;;18.27;63.75;98624.69;4092630;28;20256;-53
2022/08/25 03:52:03;;;;;;;5.40;3.03;;;;;;;17.92;65.01;98630.69;4102946;28;20253;-53
2022/08/25 03:54:05;;;;;;;3.42;3.13;;;;;;;18.12;64.52;98622.94;4076681;29;20574;-53
2022/08/25 03:56:07;;;;;;;2.70;2.47;;;;;;;18.06;64.77;98618.56;4090274;28;20266;-53
2022/08/25 03:58:08;;;;;;;2.75;2.47;;;;;;;18.04;64.59;98620.81;4108988;28;20238;-52
2022/08/25 04:00:11;;;;;;;3.88;3.55;;;;;;;18.11;64.50;98612.97;4089099;28;20219;-53
2022/08/25 04:02:12;;;;;;;2.85;2.65;;;;;;;18.11;64.52;98621.28;4107138;28;20633;-52
2022/08/25 04:04:15;;;;;;;2.40;2.20;;;;;;;18.14;64.63;98622.66;4088743;28;20239;-53
2022/08/25 04:06:18;;;;;;;2.65;2.45;;;;;;;18.09;64.44;98631.00;4103384;28;20281;-52
2022/08/25 04:08:21;;;;;;;2.08;1.80;;;;;;;18.13;64.63;98629.31;4105676;28;20211;-53
2022/08/25 04:10:23;;;;;;;4.10;1.98;;;;;;;18.07;64.75;98636.03;4109109;28;20413;-52
2022/08/25 04:12:24;;;;;;;2.67;2.47;;;;;;;18.05;64.89;98641.06;4088052;28;20229;-52
2022/08/25 04:14:26;;;;;;;3.50;2.35;;;;;;;18.03;64.80;98641.34;4107206;28;20211;-53
2022/08/25 04:16:30;;;;;;;2.53;2.35;;;;;;;18.03;64.73;98648.81;4106456;28;20222;-53
2022/08/25 04:18:33;;;;;;;3.67;2.45;;;;;;;18.03;64.59;98640.50;4090644;29;20219;-52
2022/08/25 04:20:34;;;;;;;2.80;2.60;;;;;;;18.03;64.71;98637.72;4072039;29;20208;-51
2022/08/25 04:22:37;;;;;;;2.72;2.53;;;;;;;18.02;64.47;98644.38;4088002;28;21031;-52
2022/08/25 04:24:39;;;;;;;6.13;2.38;;;;;;;18.03;64.62;98640.50;4089947;28;20204;-52
2022/08/25 04:26:44;;;;;;;2.50;2.05;;;;;;;18.02;64.70;98638.84;4106861;28;21012;-53
2022/08/25 04:28:47;;;;;;;2.83;2.38;;;;;;;17.99;64.79;98633.91;4070692;29;20243;-53
2022/08/25 04:30:48;;;;;;;5.13;2.40;;;;;;;17.96;64.92;98640.88;4088723;28;20208;-53
2022/08/25 04:32:52;;;;;;;2.60;2.40;;;;;;;17.89;65.23;98643.16;4088937;28;20207;-52
2022/08/25 04:34:54;;;;;;;2.63;2.42;;;;;;;17.84;65.28;98642.41;4089749;28;20207;-51
2022/08/25 04:36:56;;;;;;;2.58;2.38;;;;;;;17.77;65.42;98647.44;4088352;28;20868;-51
2022/08/25 04:38:58;;;;;;;2.65;2.45;;;;;;;17.69;65.76;98639.78;4091205;28;20211;-55
2022/08/25 04:41:02;;;;;;;2.70;2.50;;;;;;;17.72;65.93;98647.50;4105715;28;20577;-55
2022/08/25 04:43:04;;;;;;;3.22;2.95;;;;;;;17.70;65.95;98642.25;4093478;29;20314;-50
2022/08/25 04:45:06;;;;;;;5.05;3.05;;;;;;;17.74;65.89;98642.50;4092457;28;20633;-51
2022/08/25 04:47:09;;;;;;;10.20;2.97;;;;;;;17.78;65.63;98643.56;4089861;28;20267;-52
2022/08/25 04:49:11;;;;;;;10.35;3.08;;;;;;;17.82;65.36;98647.38;4106090;28;20245;-53
2022/08/25 04:51:15;;;;;;;14.75;3.70;;;;;;;17.80;65.54;98647.69;4090649;28;20636;-53
2022/08/25 04:53:17;;;;;;;16.95;4.78;;;;;;;17.78;65.81;98643.56;4090575;28;20211;-52
2022/08/25 04:55:19;;;;;;;24.13;4.05;;;;;;;17.77;65.92;98642.72;4102831;28;20278;-51
2022/08/25 04:57:21;;;;;;;18.50;4.20;;;;;;;17.75;66.00;98639.44;4103378;28;20816;-52
2022/08/25 04:59:22;;;;;;;12.45;4.57;;;;;;;17.79;66.07;98634.16;4102737;28;20854;-52
2022/08/25 05:01:45;;;;;;;21.30;5.38;;;;;;;17.79;65.89;98634.16;4228022;27;21347;-54
2022/08/25 05:03:56;;;;;;;9.50;3.30;;;;;;;17.82;66.05;98631.63;4192592;28;20199;-54
2022/08/25 05:05:59;;;;;;;13.77;4.07;;;;;;;17.74;66.47;98628.66;4197070;28;21480;-52
2022/08/25 05:08:02;;;;;;;9.73;4.50;;;;;;;17.76;66.30;98634.72;4224664;28;20315;-53
2022/08/25 05:10:05;;;;;;;5.47;3.55;;;;;;;17.75;66.42;98630.31;4212057;28;20213;-51
2022/08/25 05:12:07;;;;;;;18.55;3.25;;;;;;;17.75;66.47;98633.06;4217297;28;20724;-52
2022/08/25 05:14:13;;;;;;;9.93;3.50;;;;;;;17.75;66.49;98638.59;4212607;28;20240;-52
2022/08/25 05:16:18;;;;;;;7.85;3.50;;;;;;;17.75;66.48;98633.91;4225581;27;20682;-50
2022/08/25 05:18:22;;;;;;;6.55;3.22;;;;;;;17.80;66.35;98638.56;4227094;27;20202;-56
2022/08/25 05:20:24;;;;;;;3.10;2.80;;;;;;;17.81;66.36;98638.28;4210641;28;20669;-53
2022/08/25 05:22:26;;;;;;;3.20;2.88;;;;;;;17.84;66.58;98639.63;4217029;28;20206;-55
2022/08/25 05:24:28;;;;;;;3.88;2.78;;;;;;;17.89;66.77;98634.00;4203564;28;20206;-53
2022/08/25 05:26:31;;;;;;;3.20;2.63;;;;;;;17.94;66.82;98636.75;4221406;27;20209;-57
2022/08/25 05:28:33;;;;;;;5.32;2.80;;;;;;;17.95;66.63;98638.38;4205683;28;20234;-57
2022/08/25 05:30:39;;;;;;;5.63;2.35;;;;;;;18.02;66.98;98633.31;4209465;28;20277;-54
2022/08/25 05:32:41;;;;;;;4.20;2.55;;;;;;;18.15;67.24;98621.53;4230230;27;20210;-53
2022/08/25 05:34:43;;;;;;;5.30;2.25;;;;;;;18.26;67.37;98620.28;4211348;28;20202;-55
2022/08/25 05:36:45;;;;;;;3.60;2.58;;;;;;;18.45;67.54;98626.72;4210431;28;20219;-53
2022/08/25 05:38:47;;;;;;;5.30;3.15;;;;;;;18.65;67.30;98623.66;4219176;28;20206;-54
2022/08/25 05:40:59;;;;;;;5.47;2.72;;;;;;;18.82;66.78;98622.00;4212311;28;20225;-54
2022/08/25 05:43:00;;;;;;;13.02;2.35;;;;;;;18.87;66.46;98613.59;4211692;28;20247;-54
2022/08/25 05:45:06;;;;;;;5.13;3.22;;;;;;;18.87;66.31;98623.88;4210564;28;20288;-53
2022/08/25 05:47:08;;;;;;;3.38;2.63;;;;;;;19.09;65.96;98621.28;4226466;27;20226;-53
2022/08/25 05:49:09;;;;;;;3.03;2.80;;;;;;;19.39;65.43;98615.25;4192457;28;20235;-54
2022/08/25 05:51:12;;;;;;;5.93;2.70;;;;;;;19.65;65.04;98619.22;4212746;28;20286;-55
2022/08/25 05:53:14;;;;;;;6.43;3.20;;;;;;;19.88;64.16;98618.22;4192976;28;20214;-54
2022/08/25 05:55:16;;;;;;;3.42;2.65;;;;;;;20.14;63.43;98622.16;4178315;28;20650;-53
2022/08/25 05:57:18;;;;;;;4.72;2.70;;;;;;;20.12;62.79;98605.00;4183502;28;20242;-53
2022/08/25 05:59:19;;;;;;;6.10;3.10;;;;;;;20.15;62.99;98613.53;4207055;28;20256;-54
2022/08/25 06:03:46;;;;;;;2.50;2.30;;;;;;;20.57;62.37;98615.13;4177666;28;20223;-55
2022/08/25 06:05:49;;;;;;;4.18;2.17;;;;;;;20.58;62.19;98608.44;4180443;28;20294;-54
2022/08/25 06:07:51;;;;;;;3.00;2.53;;;;;;;20.69;62.08;98607.88;4209296;28;20694;-53
2022/08/25 06:09:53;;;;;;;4.10;3.80;;;;;;;20.70;62.05;98603.16;4182040;28;20203;-54
2022/08/25 06:11:54;;;;;;;5.18;3.08;;;;;;;20.70;61.64;98608.72;4185203;28;20208;-55
2022/08/25 06:13:56;;;;;;;4.20;3.13;;;;;;;20.93;61.71;98605.69;4199906;28;20203;-54
2022/08/25 06:15:59;;;;;;;2.70;2.50;;;;;;;21.12;60.97;98611.06;4201702;28;20209;-54
2022/08/25 06:18:01;;;;;;;3.80;2.60;;;;;;;21.20;61.40;98611.13;4168895;28;20254;-53
2022/08/25 06:20:05;;;;;;;3.15;2.10;;;;;;;21.44;60.61;98608.03;4170424;28;20335;-57
2022/08/25 06:22:07;;;;;;;6.25;2.88;;;;;;;21.70;59.57;98611.81;4166784;28;20212;-53
2022/08/25 06:24:09;;;;;;;2.22;1.65;;;;;;;21.85;59.20;98603.84;4169208;28;20211;-54
2022/08/25 06:26:16;;;;;;;2.60;1.90;;;;;;;22.10;57.95;98602.34;4155629;28;20629;-56
2022/08/25 06:28:21;;;;;;;2.63;2.13;;;;;;;22.20;58.42;98596.44;4172793;28;20208;-54
2022/08/25 06:30:23;;;;;;;3.70;2.22;;;;;;;22.34;57.44;98591.56;4162365;28;20744;-54
2022/08/25 06:32:31;;;;;;;2.45;2.13;;;;;;;22.59;56.52;98586.09;4203017;28;20211;-52
2022/08/25 06:34:32;;;;;;;2.25;1.92;;;;;;;22.77;56.09;98586.94;4174319;28;20215;-54
2022/08/25 06:36:34;;;;;;;3.83;2.10;;;;;;;23.03;55.73;98590.53;4182333;28;20219;-52
2022/08/25 06:38:36;;;;;;;2.17;1.95;;;;;;;23.11;55.02;98592.50;4199512;28;20199;-53
2022/08/25 06:40:38;;;;;;;4.85;2.05;;;;;;;23.22;54.79;98593.81;4167561;28;20219;-55
2022/08/25 06:42:39;;;;;;;3.50;1.60;;;;;;;23.30;54.84;98591.03;4185015;28;20700;-52
2022/08/25 06:44:41;;;;;;;5.88;2.28;;;;;;;23.62;53.94;98586.84;4172816;28;20246;-53
2022/08/25 06:46:43;;;;;;;3.83;3.45;;;;;;;24.02;53.03;98573.13;4169293;28;20223;-53
2022/08/25 06:48:45;;;;;;;3.47;1.67;;;;;;;24.15;53.09;98568.44;4169032;28;20221;-52
2022/08/25 06:50:47;;;;;;;8.65;2.15;;;;;;;24.35;52.43;98568.50;4170969;28;20211;-54
2022/08/25 06:52:50;;;;;;;2.67;1.52;;;;;;;24.55;51.88;98573.31;4181986;28;20598;-55
2022/08/25 06:54:53;;;;;;;3.53;1.67;;;;;;;24.82;51.70;98572.81;4182153;28;20206;-54
2022/08/25 06:56:55;;;;;;;8.40;2.50;;;;;;;24.91;51.57;98570.75;4202940;28;20231;-56
2022/08/25 06:59:00;;;;;;;4.45;1.70;;;;;;;25.29;50.87;98571.44;4179506;28;20215;-53
2022/08/25 07:01:22;;;;;;;2.40;1.42;;;;;;;25.41;50.90;98570.66;4170682;28;20573;-53
2022/08/25 07:03:26;;;;;;;2.58;2.08;;;;;;;25.40;50.96;98572.63;4200842;28;20258;-52
2022/08/25 07:05:28;;;;;;;4.30;2.45;;;;;;;25.43;51.12;98566.34;4169913;28;20204;-51
2022/08/25 07:07:45;;;;;;;3.78;2.22;;;;;;;25.30;51.77;98572.25;4169993;28;20231;-54
2022/08/25 07:09:46;;;;;;;9.43;2.30;;;;;;;25.36;52.21;98566.09;4170176;28;20208;-52
2022/08/25 07:11:48;;;;;;;4.32;3.20;;;;;;;25.45;51.99;98574.41;4167926;28;20199;-54
2022/08/25 07:13:50;;;;;;;2.80;2.60;;;;;;;25.59;51.97;98581.34;4169009;28;20241;-52
2022/08/25 07:15:53;;;;;;;4.55;3.17;;;;;;;25.31;52.37;98573.88;4181199;28;20202;-54
2022/08/25 07:17:56;;;;;;;3.70;3.47;;;;;;;25.03;53.62;98573.63;4174649;28;20316;-52
2022/08/25 07:19:58;;;;;;;6.05;3.28;;;;;;;25.95;51.53;98577.81;4171030;28;20220;-53
2022/08/25 07:22:00;;;;;;;3.90;3.10;;;;;;;26.37;50.49;98582.88;4167860;28;20227;-55
2022/08/25 07:24:08;;;;;;;4.70;3.78;;;;;;;26.38;51.40;98580.91;4171511;28;20208;-54
2022/08/25 07:26:18;;;;;;;5.35;4.05;;;;;;;26.32;51.45;98585.13;4201270;28;20255;-53
2022/08/25 07:28:41;;;;;;;2.85;2.65;;;;;;;26.29;51.98;98583.81;4166651;28;20200;-54
2022/08/25 07:30:50;;;;;;;3.22;2.92;;;;;;;26.31;51.79;98587.09;4180929;28;20429;-51
2022/08/25 07:32:52;;;;;;;3.13;2.83;;;;;;;26.07;52.51;98587.06;4174422;28;20666;-54
2022/08/25 07:35:14;;;;;;;3.55;2.65;;;;;;;26.92;51.04;98585.88;4165505;28;20655;-52
2022/08/25 07:37:16;;;;;;;4.13;2.97;;;;;;;27.36;49.74;98582.03;4172605;28;20261;-53
2022/08/25 07:39:38;;;;;;;3.92;3.05;;;;;;;27.17;50.53;98579.06;4179439;28;20234;-54
2022/08/25 07:41:41;;;;;;;4.32;3.92;;;;;;;27.11;50.06;98586.06;4168645;28;20227;-52
2022/08/25 07:43:43;;;;;;;3.25;3.03;;;;;;;27.08;50.75;98581.16;4168520;28;20200;-51
2022/08/25 07:45:45;;;;;;;7.85;3.35;;;;;;;27.19;50.81;98585.13;4169274;28;20207;-55
2022/08/25 07:47:52;;;;;;;3.22;2.63;;;;;;;27.72;50.14;98587.47;4198817;28;20285;-53
2022/08/25 07:49:54;;;;;;;8.15;3.50;;;;;;;26.81;50.66;98589.53;4170921;28;20247;-52
2022/08/25 07:51:56;;;;;;;4.22;3.83;;;;;;;26.37;51.53;98596.91;4170271;28;20618;-53
2022/08/25 07:54:07;;;;;;;4.78;3.88;;;;;;;26.52;51.36;98582.16;4176709;28;20207;-51
2022/08/25 07:56:14;;;;;;;3.67;3.10;;;;;;;26.24;52.41;98586.03;4164370;28;20249;-55
2022/08/25 07:58:17;;;;;;;3.72;2.97;;;;;;;26.75;51.41;98586.16;4168421;28;20257;-54
2022/08/25 08:00:19;;;;;;;4.03;3.10;;;;;;;27.46;49.80;98584.31;4201209;28;20217;-51
2022/08/25 08:02:21;;;;;;;5.07;4.00;;;;;;;26.76;51.27;98586.97;4170368;28;20332;-52
2022/08/25 08:04:25;;;;;;;4.47;3.75;;;;;;;27.00;51.44;98587.72;4170057;28;20219;-53
2022/08/25 08:06:28;;;;;;;6.82;3.53;;;;;;;27.56;50.38;98589.44;4167486;28;20336;-55
2022/08/25 08:08:30;;;;;;;4.72;3.03;;;;;;;27.76;50.53;98596.84;4199883;28;20687;-51
2022/08/25 08:10:33;;;;;;;6.70;3.28;;;;;;;27.80;49.32;98594.94;4167740;28;20676;-55
2022/08/25 08:12:54;;;;;;;7.18;4.18;;;;;;;27.75;49.77;98591.53;4196028;28;20203;-53
2022/08/25 08:14:57;;;;;;;5.93;3.47;;;;;;;28.42;48.61;98588.56;4171035;28;20624;-54
2022/08/25 08:17:04;;;;;;;3.55;3.22;;;;;;;28.42;48.61;98595.03;4198333;28;20341;-54
2022/08/25 08:19:06;;;;;;;3.53;3.22;;;;;;;28.44;48.15;98591.84;4181504;28;20206;-53
2022/08/25 08:21:18;;;;;;;4.13;3.58;;;;;;;28.43;48.08;98595.81;4180704;28;20297;-52
2022/08/25 08:23:26;;;;;;;5.05;3.28;;;;;;;28.57;48.37;98596.16;4196345;28;20206;-53
2022/08/25 08:25:28;;;;;;;3.63;3.33;;;;;;;28.36;48.48;98590.84;4165229;28;20195;-54
2022/08/25 08:27:31;;;;;;;4.13;3.83;;;;;;;28.58;48.24;98581.72;4196030;28;20767;-51
2022/08/25 08:29:34;;;;;;;4.40;3.70;;;;;;;28.58;47.61;98586.56;4166968;28;20207;-52
2022/08/25 08:31:35;;;;;;;4.30;3.20;;;;;;;28.66;47.65;98577.88;4166833;28;20201;-52
2022/08/25 08:33:37;;;;;;;4.32;3.88;;;;;;;29.32;46.79;98584.25;4167278;28;20644;-51
2022/08/25 08:35:41;;;;;;;6.80;3.67;;;;;;;29.42;46.01;98578.03;4179876;28;20752;-54
2022/08/25 08:37:44;;;;;;;6.75;6.07;;;;;;;28.51;47.50;98581.56;4179576;28;20230;-52
2022/08/25 08:39:46;;;;;;;4.25;3.67;;;;;;;27.70;49.50;98574.94;4181868;28;20740;-52
2022/08/25 08:42:17;;;;;;;7.85;3.40;;;;;;;28.36;48.59;98573.94;4173491;28;20238;-51
2022/08/25 08:44:40;;;;;;;7.38;3.67;;;;;;;28.34;48.36;98581.09;4164792;28;20215;-51
2022/08/25 08:46:53;;;;;;;5.18;3.30;;;;;;;28.44;48.01;98578.56;4200074;28;20312;-53
2022/08/25 08:48:59;;;;;;;5.05;3.67;;;;;;;28.76;47.95;98573.69;4180268;28;20257;-51
2022/08/25 08:51:16;;;;;;;2.97;2.78;;;;;;;28.26;47.33;98568.03;4168312;28;20226;-53
2022/08/25 08:53:22;;;;;;;3.88;2.95;;;;;;;28.16;48.31;98569.38;4179917;28;20234;-51
2022/08/25 08:55:27;;;;;;;7.60;2.88;;;;;;;28.45;47.82;98566.09;4166487;28;20613;-53
2022/08/25 08:57:34;;;;;;;5.30;3.53;;;;;;;28.41;47.79;98575.66;4182757;28;20599;-50
2022/08/25 08:59:48;;;;;;;6.93;3.50;;;;;;;28.89;46.53;98566.72;4199529;28;20202;-53
2022/08/25 09:01:56;;;;;;;3.15;2.95;;;;;;;28.60;46.48;98570.88;4167406;28;20602;-51
2022/08/25 09:04:17;;;;;;;3.47;3.28;;;;;;;28.68;46.77;98558.63;4179930;28;20345;-52
2022/08/25 09:06:27;;;;;;;3.70;3.35;;;;;;;29.14;46.47;98554.03;4198642;28;20522;-53
2022/08/25 09:08:29;;;;;;;4.45;3.33;;;;;;;28.92;46.41;98551.91;4181201;28;20206;-51
2022/08/25 09:10:44;;;;;;;4.78;3.10;;;;;;;29.07;46.80;98549.09;4165467;28;20692;-52
2022/08/25 09:13:00;;;;;;;3.25;2.95;;;;;;;29.57;45.37;98551.75;4200525;28;20210;-51
2022/08/25 09:18:28;;;;;;;3.53;3.22;;;;;;;30.06;43.69;98541.34;4168235;28;20232;-51
2022/08/25 09:21:09;;;;;;;4.57;2.75;;;;;;;29.98;44.62;98538.81;4158098;28;20207;-51
2022/08/25 09:23:32;;;;;;;3.53;3.22;;;;;;;29.81;44.63;98536.47;4163907;28;20855;-51
2022/08/25 09:25:39;;;;;;;3.65;3.13;;;;;;;30.03;43.81;98536.47;4191009;28;20213;-51
2022/08/25 09:28:22;;;;;;;5.18;2.85;;;;;;;30.43;43.93;98545.25;4166642;28;20223;-52
2022/08/25 09:30:24;;;;;;;2.72;2.53;;;;;;;30.84;42.66;98532.19;4199034;28;20253;-51
2022/08/25 09:32:28;;;;;;;3.70;3.40;;;;;;;30.02;43.51;98540.50;4174391;28;20230;-52
2022/08/25 09:34:33;;;;;;;4.10;2.70;;;;;;;30.21;43.22;98537.63;4173201;28;20314;-51
2022/08/25 09:36:35;;;;;;;5.35;2.63;;;;;;;30.82;42.77;98532.56;4171914;28;20227;-51
2022/08/25 09:38:39;;;;;;;2.50;2.30;;;;;;;30.64;42.56;98525.03;4169736;28;20270;-52
2022/08/25 09:40:50;;;;;;;2.83;2.63;;;;;;;29.66;41.60;98537.41;4200924;28;20748;-52
2022/08/25 09:42:55;;;;;;;3.13;2.92;;;;;;;30.00;42.90;98537.25;4197763;28;20226;-52
2022/08/25 09:44:59;;;;;;;3.45;3.25;;;;;;;30.41;42.73;98536.34;4185797;28;20215;-52
2022/08/25 09:47:23;;;;;;;5.10;3.20;;;;;;;30.40;43.35;98542.38;4173952;28;20693;-52
2022/08/25 09:49:34;;;;;;;3.08;2.58;;;;;;;30.35;43.80;98535.03;4170204;28;20712;-51
2022/08/25 09:51:41;;;;;;;2.80;2.38;;;;;;;30.84;42.38;98532.19;4170325;28;20291;-51
2022/08/25 09:53:59;;;;;;;5.55;2.97;;;;;;;30.70;42.56;98527.13;4168426;28;20206;-53
2022/08/25 09:56:04;;;;;;;7.05;3.00;;;;;;;30.57;42.47;98525.69;4166506;28;20264;-53